Time;durP1;ratioP1;P1;durP2;ratioP2;P2;SDS_P1;SDS_P2;PMS_P1;PMS_P2;Temp;Humidity;BMP_temperature;BMP_pressure;BME280_temperature;BME280_humidity;BME280_pressure;Samples;Min_cycle;Max_cycle;Signal;HPM_P1;HPM_P2
2023/05/18 00:03:19;;;;;;;9.27;3.80;;;;;;;8.35;61.76;101010.22;30861438;28;96795;-65
2023/05/18 00:18:22;;;;;;;16.15;5.07;;;;;;;8.19;62.53;101007.19;30861189;28;97151;-68
2023/05/18 00:33:22;;;;;;;8.60;4.50;;;;;;;7.96;62.99;101031.28;30859944;28;97136;-66
2023/05/18 00:48:23;;;;;;;14.23;4.40;;;;;;;7.85;63.50;101049.97;30857968;28;112869;-70
2023/05/18 01:03:25;;;;;;;14.30;4.85;;;;;;;7.82;64.17;101061.66;30857300;28;97410;-68
2023/05/18 01:18:30;;;;;;;13.73;4.93;;;;;;;7.79;64.00;101070.72;30856387;28;96755;-69
2023/05/18 01:33:30;;;;;;;9.63;4.43;;;;;;;7.70;64.19;101087.41;30855345;28;96714;-70
2023/05/18 01:48:36;;;;;;;9.50;4.20;;;;;;;7.55;65.00;101092.19;30856381;28;107520;-70
2023/05/18 02:03:37;;;;;;;12.73;3.70;;;;;;;7.43;64.73;101107.28;30873786;28;96688;-69
2023/05/18 02:18:37;;;;;;;13.75;3.75;;;;;;;7.39;65.31;101103.22;30872813;28;97613;-65
2023/05/18 02:33:39;;;;;;;21.50;3.78;;;;;;;7.39;65.38;101113.81;30871650;28;96650;-66
2023/05/18 02:48:44;;;;;;;10.43;2.90;;;;;;;7.41;65.82;101121.69;30870228;28;96658;-65
2023/05/18 03:03:46;;;;;;;8.07;2.60;;;;;;;7.38;65.56;101137.81;30865496;28;97254;-66
2023/05/18 03:18:46;;;;;;;10.37;2.80;;;;;;;7.41;65.03;101133.09;30866020;28;96668;-68
2023/05/18 03:33:46;;;;;;;8.98;2.75;;;;;;;7.47;65.03;101141.53;30863838;28;97245;-69
2023/05/18 03:48:47;;;;;;;6.10;2.22;;;;;;;7.57;64.94;101153.03;30862315;28;96691;-67
2023/05/18 04:03:49;;;;;;;6.70;2.28;;;;;;;7.83;64.63;101160.66;30859356;28;96716;-65
2023/05/18 04:18:49;;;;;;;6.53;2.40;;;;;;;8.09;64.21;101177.03;30858887;28;96698;-67
2023/05/18 04:33:50;;;;;;;15.65;2.70;;;;;;;8.24;63.38;101190.81;30856773;28;99876;-67
2023/05/18 04:48:51;;;;;;;7.82;2.60;;;;;;;8.55;63.05;101190.88;30855013;28;96738;-64
2023/05/18 05:03:52;;;;;;;6.33;2.50;;;;;;;8.86;62.32;101193.50;30851344;28;97478;-70
2023/05/18 05:18:52;;;;;;;7.57;2.33;;;;;;;9.13;61.52;101209.69;30852010;28;97851;-67
2023/05/18 05:33:53;;;;;;;10.38;2.45;;;;;;;9.67;60.64;101209.34;30850189;28;96652;-64
2023/05/18 05:48:53;;;;;;;9.63;2.40;;;;;;;10.28;59.73;101210.84;30848027;28;111077;-64
2023/05/18 06:03:53;;;;;;;4.68;1.95;;;;;;;10.95;57.81;101212.66;30842898;28;96922;-66
2023/05/18 06:18:54;;;;;;;7.20;1.70;;;;;;;11.37;56.64;101214.78;30846471;28;96742;-69
2023/05/18 06:33:55;;;;;;;8.57;1.90;;;;;;;11.74;54.14;101229.00;30846792;28;96915;-65
2023/05/18 06:48:55;;;;;;;9.52;1.48;;;;;;;12.14;52.14;101233.06;30863823;28;97804;-66
2023/05/18 07:03:55;;;;;;;6.43;1.20;;;;;;;12.62;50.81;101236.22;30861776;28;97176;-66
2023/05/18 07:18:57;;;;;;;5.28;1.20;;;;;;;13.36;49.05;101240.06;30858889;28;105991;-69
2023/05/18 07:33:58;;;;;;;7.50;1.50;;;;;;;14.47;47.33;101243.31;30858677;28;97443;-69
2023/05/18 07:48:59;;;;;;;6.07;1.55;;;;;;;15.64;44.27;101241.91;30857691;28;96738;-69
2023/05/18 08:04:00;;;;;;;4.73;1.10;;;;;;;17.11;41.37;101244.22;30856307;28;96921;-65
2023/05/18 08:19:00;;;;;;;6.32;1.38;;;;;;;19.05;38.11;101229.75;30852950;28;97109;-66
2023/05/18 08:34:03;;;;;;;3.47;0.97;;;;;;;20.04;34.48;101223.97;30854742;28;96876;-67
2023/05/18 08:49:04;;;;;;;10.47;1.40;;;;;;;21.02;32.64;101222.38;30853949;28;96742;-66
2023/05/18 09:04:05;;;;;;;5.67;1.20;;;;;;;20.81;31.90;101212.69;30851629;28;97832;-66
2023/05/18 09:19:06;;;;;;;8.60;1.37;;;;;;;21.54;31.27;101220.50;30824804;28;97551;-66
2023/05/18 09:34:06;;;;;;;6.70;1.20;;;;;;;21.96;30.91;101215.38;30850233;28;97069;-70
2023/05/18 09:49:07;;;;;;;5.47;1.33;;;;;;;22.74;29.33;101215.09;30850174;28;112990;-67
2023/05/18 10:04:07;;;;;;;6.18;1.58;;;;;;;22.72;28.97;101207.16;30848700;28;96624;-67
2023/05/18 10:19:10;;;;;;;4.40;0.90;;;;;;;23.10;27.69;101197.06;30865225;28;96638;-66
2023/05/18 10:34:11;;;;;;;2.67;1.00;;;;;;;23.40;27.22;101204.44;30868659;28;97739;-67
2023/05/18 10:49:14;;;;;;;6.13;0.98;;;;;;;23.62;26.02;101185.69;30867791;28;97149;-69
2023/05/18 11:04:15;;;;;;;4.03;1.00;;;;;;;23.70;26.00;101179.91;30863660;28;97039;-68
2023/05/18 11:19:15;;;;;;;4.57;0.85;;;;;;;24.15;25.12;101178.56;30862980;28;97390;-67
2023/05/18 11:34:41;;;;;;;2.70;0.77;;;;;;;24.37;25.02;101180.69;30861327;28;97041;-68
2023/05/18 11:49:45;;;;;;;3.47;0.80;;;;;;;24.90;24.47;101182.38;30860725;28;97337;-71
2023/05/18 12:04:49;;;;;;;3.17;0.73;;;;;;;24.45;24.41;101174.88;30856108;28;98270;-68
2023/05/18 12:19:50;;;;;;;1.77;1.00;;;;;;;24.12;23.95;101162.72;30856621;28;97233;-74
2023/05/18 12:34:50;;;;;;;2.75;0.93;;;;;;;23.25;24.17;101155.94;30853552;28;97397;-67
2023/05/18 12:49:51;;;;;;;;;;;;;;;23.13;23.85;101153.19;30852855;28;97493;-66
2023/05/18 13:05:22;;;;;;;2.87;1.00;;;;;;;23.41;24.17;101129.97;30851806;28;96824;-68
2023/05/18 13:20:28;;;;;;;2.60;0.80;;;;;;;22.83;24.44;101137.66;30770398;28;97412;-65
2023/05/18 13:35:29;;;;;;;2.23;0.73;;;;;;;22.63;24.62;101127.06;30761848;28;97463;-65
2023/05/18 13:50:29;;;;;;;2.40;0.82;;;;;;;22.27;25.36;101113.22;30819138;28;97317;-65
2023/05/18 14:05:30;;;;;;;2.10;0.93;;;;;;;21.73;26.54;101095.81;30805533;28;96695;-66
2023/05/18 14:20:30;;;;;;;2.07;0.87;;;;;;;21.60;27.44;101091.34;30822281;28;97058;-66
2023/05/18 14:35:30;;;;;;;5.23;0.93;;;;;;;21.51;27.85;101082.63;30861595;28;97013;-65
2023/05/18 14:50:31;;;;;;;3.47;0.87;;;;;;;20.92;28.13;101082.81;30855433;28;97113;-66
2023/05/18 15:05:32;;;;;;;1.80;0.93;;;;;;;19.88;29.43;101090.88;30863856;28;116575;-66
2023/05/18 15:20:33;;;;;;;3.03;1.10;;;;;;;19.67;30.08;101082.94;30863709;28;96858;-67
2023/05/18 15:35:35;;;;;;;4.68;1.20;;;;;;;19.51;30.81;101084.22;30860905;28;117059;-68
2023/05/18 15:50:35;;;;;;;2.07;0.87;;;;;;;19.34;30.74;101076.53;30860394;28;96638;-68
2023/05/18 16:05:36;;;;;;;2.40;0.90;;;;;;;19.19;31.49;101078.56;30850591;28;96781;-68
2023/05/18 16:20:36;;;;;;;3.28;1.13;;;;;;;18.24;32.82;101074.69;30845909;28;97378;-65
2023/05/18 16:35:37;;;;;;;3.13;0.95;;;;;;;17.91;34.19;101078.03;30842274;28;97190;-67
2023/05/18 16:50:38;;;;;;;2.80;1.07;;;;;;;17.70;34.97;101084.28;30847146;28;96807;-65
2023/05/18 17:05:38;;;;;;;3.00;0.90;;;;;;;17.37;35.69;101084.00;30850500;28;96876;-63
2023/05/18 17:20:38;;;;;;;3.75;1.50;;;;;;;17.02;36.76;101091.97;30851233;28;96619;-66
2023/05/18 17:35:39;;;;;;;8.38;1.65;;;;;;;16.47;38.10;101100.38;30850832;28;109286;-66
2023/05/18 17:50:41;;;;;;;3.50;1.27;;;;;;;16.04;39.82;101105.56;30850677;28;97069;-64
2023/05/18 18:05:41;;;;;;;3.00;1.23;;;;;;;15.55;41.15;101096.09;30850429;28;97213;-66
2023/05/18 18:20:42;;;;;;;1.63;1.17;;;;;;;15.04;42.15;101110.06;30823146;28;96728;-64
2023/05/18 18:35:42;;;;;;;2.15;1.27;;;;;;;14.50;42.98;101110.78;30838576;28;97178;-64
2023/05/18 18:50:42;;;;;;;2.70;1.40;;;;;;;13.95;44.23;101136.56;30848211;28;97416;-67
2023/05/18 19:05:43;;;;;;;6.40;1.50;;;;;;;13.49;45.78;101151.28;30853999;28;101366;-65
2023/05/18 19:20:43;;;;;;;2.97;1.75;;;;;;;13.03;47.52;101153.50;30864695;28;96677;-70
2023/05/18 19:35:44;;;;;;;4.78;1.80;;;;;;;12.70;48.67;101164.09;30864451;28;97157;-72
2023/05/18 19:50:44;;;;;;;5.33;1.97;;;;;;;12.37;49.74;101169.25;30862003;28;96670;-65
2023/05/18 20:05:46;;;;;;;4.47;2.20;;;;;;;12.05;50.92;101186.72;30852704;28;96918;-67
2023/05/18 20:20:48;;;;;;;3.83;2.47;;;;;;;11.79;51.97;101206.19;30853705;28;97033;-68
2023/05/18 20:35:49;;;;;;;5.37;2.60;;;;;;;11.51;53.16;101197.44;30858422;28;97688;-69
2023/05/18 20:50:52;;;;;;;5.72;2.75;;;;;;;11.29;54.50;101206.69;30857012;28;96773;-68
2023/05/18 21:05:52;;;;;;;7.57;2.97;;;;;;;11.16;55.41;101213.22;30854895;28;96736;-65
2023/05/18 21:20:56;;;;;;;8.95;3.13;;;;;;;11.06;56.53;101201.78;30855281;28;96703;-67
2023/05/18 21:35:57;;;;;;;9.17;2.67;;;;;;;10.94;57.86;101213.63;30854361;28;97033;-65
2023/05/18 21:50:57;;;;;;;6.93;3.50;;;;;;;10.87;58.31;101223.19;30854323;28;96663;-65
2023/05/18 22:05:58;;;;;;;5.63;3.45;;;;;;;10.83;58.49;101215.47;30855585;28;97360;-65
2023/05/18 22:20:58;;;;;;;8.65;2.95;;;;;;;10.82;59.35;101224.47;30872741;28;96736;-68
2023/05/18 22:35:58;;;;;;;6.85;3.78;;;;;;;10.79;60.06;101229.25;30871653;28;106007;-67
2023/05/18 22:50:59;;;;;;;8.20;4.13;;;;;;;10.70;60.60;101222.97;30870740;28;101102;-66
2023/05/18 23:06:01;;;;;;;7.63;3.67;;;;;;;10.63;60.80;101216.53;30868630;28;96694;-68
2023/05/18 23:21:02;;;;;;;6.87;3.73;;;;;;;10.47;61.56;101209.16;30865994;28;97560;-70
2023/05/18 23:36:03;;;;;;;7.35;3.13;;;;;;;10.23;62.30;101194.47;30865787;28;109132;-70
2023/05/18 23:51:06;;;;;;;6.53;3.60;;;;;;;10.04;62.70;101195.34;30862470;28;98472;-65
